sensor_id;sensor_type;location;lat;lon;timestamp;P1;durP1;ratioP1;P2;durP2;ratioP2
33162;SDS011;29282;45.656;11.302;2023-09-30T00:00:56;6.60;;;4.68;;
33162;SDS011;29282;45.656;11.302;2023-09-30T00:03:24;7.88;;;4.80;;
33162;SDS011;29282;45.656;11.302;2023-09-30T00:05:50;6.80;;;4.90;;
33162;SDS011;29282;45.656;11.302;2023-09-30T00:08:15;6.18;;;4.88;;
33162;SDS011;29282;45.656;11.302;2023-09-30T00:10:41;6.78;;;4.72;;
33162;SDS011;29282;45.656;11.302;2023-09-30T00:13:06;6.55;;;4.70;;
33162;SDS011;29282;45.656;11.302;2023-09-30T00:15:35;5.50;;;4.15;;
33162;SDS011;29282;45.656;11.302;2023-09-30T00:18:00;5.28;;;4.63;;
33162;SDS011;29282;45.656;11.302;2023-09-30T00:20:27;6.05;;;4.53;;
33162;SDS011;29282;45.656;11.302;2023-09-30T00:22:53;6.25;;;5.13;;
33162;SDS011;29282;45.656;11.302;2023-09-30T00:25:18;8.73;;;5.00;;
33162;SDS011;29282;45.656;11.302;2023-09-30T00:27:45;5.75;;;4.53;;
33162;SDS011;29282;45.656;11.302;2023-09-30T00:30:11;5.45;;;4.55;;
33162;SDS011;29282;45.656;11.302;2023-09-30T00:32:36;5.43;;;4.90;;
33162;SDS011;29282;45.656;11.302;2023-09-30T00:35:02;5.25;;;4.68;;
33162;SDS011;29282;45.656;11.302;2023-09-30T00:37:28;10.35;;;5.00;;
33162;SDS011;29282;45.656;11.302;2023-09-30T00:39:53;7.25;;;4.82;;
33162;SDS011;29282;45.656;11.302;2023-09-30T00:42:19;6.43;;;4.72;;
33162;SDS011;29282;45.656;11.302;2023-09-30T00:44:46;5.18;;;4.68;;
33162;SDS011;29282;45.656;11.302;2023-09-30T00:47:12;7.47;;;4.60;;
33162;SDS011;29282;45.656;11.302;2023-09-30T00:49:40;5.07;;;4.53;;
33162;SDS011;29282;45.656;11.302;2023-09-30T00:52:08;5.45;;;4.95;;
33162;SDS011;29282;45.656;11.302;2023-09-30T00:54:34;7.88;;;4.95;;
33162;SDS011;29282;45.656;11.302;2023-09-30T00:57:02;7.22;;;5.00;;
33162;SDS011;29282;45.656;11.302;2023-09-30T00:59:28;8.07;;;4.60;;
33162;SDS011;29282;45.656;11.302;2023-09-30T01:01:57;7.47;;;4.63;;
33162;SDS011;29282;45.656;11.302;2023-09-30T01:04:24;5.82;;;4.32;;
33162;SDS011;29282;45.656;11.302;2023-09-30T01:06:54;4.93;;;4.43;;
33162;SDS011;29282;45.656;11.302;2023-09-30T01:09:22;4.57;;;4.15;;
33162;SDS011;29282;45.656;11.302;2023-09-30T01:11:48;4.93;;;4.43;;
33162;SDS011;29282;45.656;11.302;2023-09-30T01:14:27;6.03;;;4.40;;
33162;SDS011;29282;45.656;11.302;2023-09-30T01:16:54;5.35;;;4.70;;
33162;SDS011;29282;45.656;11.302;2023-09-30T01:19:20;6.35;;;4.72;;
33162;SDS011;29282;45.656;11.302;2023-09-30T01:21:45;5.25;;;4.47;;
33162;SDS011;29282;45.656;11.302;2023-09-30T01:24:14;5.03;;;4.47;;
33162;SDS011;29282;45.656;11.302;2023-09-30T01:26:39;4.90;;;4.40;;
33162;SDS011;29282;45.656;11.302;2023-09-30T01:29:05;5.88;;;4.25;;
33162;SDS011;29282;45.656;11.302;2023-09-30T01:31:36;4.47;;;4.03;;
33162;SDS011;29282;45.656;11.302;2023-09-30T01:34:01;4.82;;;4.05;;
33162;SDS011;29282;45.656;11.302;2023-09-30T01:36:27;5.40;;;4.70;;
33162;SDS011;29282;45.656;11.302;2023-09-30T01:38:53;5.55;;;4.43;;
33162;SDS011;29282;45.656;11.302;2023-09-30T01:41:19;5.88;;;4.80;;
33162;SDS011;29282;45.656;11.302;2023-09-30T01:43:44;6.13;;;4.13;;
33162;SDS011;29282;45.656;11.302;2023-09-30T01:46:10;4.40;;;3.97;;
33162;SDS011;29282;45.656;11.302;2023-09-30T01:48:35;5.70;;;4.70;;
33162;SDS011;29282;45.656;11.302;2023-09-30T01:51:01;7.10;;;4.53;;
33162;SDS011;29282;45.656;11.302;2023-09-30T01:53:26;6.13;;;4.65;;
33162;SDS011;29282;45.656;11.302;2023-09-30T01:55:52;5.07;;;4.53;;
33162;SDS011;29282;45.656;11.302;2023-09-30T01:58:18;5.95;;;4.40;;
33162;SDS011;29282;45.656;11.302;2023-09-30T02:00:44;5.88;;;4.38;;
33162;SDS011;29282;45.656;11.302;2023-09-30T02:03:10;4.80;;;4.30;;
33162;SDS011;29282;45.656;11.302;2023-09-30T02:05:36;6.18;;;4.35;;
33162;SDS011;29282;45.656;11.302;2023-09-30T02:08:04;6.15;;;4.47;;
33162;SDS011;29282;45.656;11.302;2023-09-30T02:10:30;6.28;;;4.70;;
33162;SDS011;29282;45.656;11.302;2023-09-30T02:12:57;5.10;;;4.60;;
33162;SDS011;29282;45.656;11.302;2023-09-30T02:15:24;6.28;;;4.57;;
33162;SDS011;29282;45.656;11.302;2023-09-30T02:17:49;5.72;;;4.57;;
33162;SDS011;29282;45.656;11.302;2023-09-30T02:20:15;5.80;;;4.57;;
33162;SDS011;29282;45.656;11.302;2023-09-30T02:22:44;4.90;;;4.40;;
33162;SDS011;29282;45.656;11.302;2023-09-30T02:25:10;4.95;;;4.45;;
33162;SDS011;29282;45.656;11.302;2023-09-30T02:27:37;5.07;;;4.30;;
33162;SDS011;29282;45.656;11.302;2023-09-30T02:30:04;4.80;;;4.18;;
33162;SDS011;29282;45.656;11.302;2023-09-30T02:32:30;5.30;;;4.80;;
33162;SDS011;29282;45.656;11.302;2023-09-30T02:34:58;5.18;;;4.50;;
33162;SDS011;29282;45.656;11.302;2023-09-30T02:37:24;5.40;;;4.15;;
33162;SDS011;29282;45.656;11.302;2023-09-30T02:39:50;5.03;;;4.35;;
33162;SDS011;29282;45.656;11.302;2023-09-30T02:42:16;6.57;;;4.72;;
33162;SDS011;29282;45.656;11.302;2023-09-30T02:44:41;4.40;;;4.00;;
33162;SDS011;29282;45.656;11.302;2023-09-30T02:47:07;4.90;;;4.25;;
33162;SDS011;29282;45.656;11.302;2023-09-30T02:49:36;4.70;;;4.30;;
33162;SDS011;29282;45.656;11.302;2023-09-30T02:52:02;7.05;;;4.43;;
33162;SDS011;29282;45.656;11.302;2023-09-30T02:54:27;5.15;;;4.07;;
33162;SDS011;29282;45.656;11.302;2023-09-30T02:56:56;4.80;;;4.05;;
33162;SDS011;29282;45.656;11.302;2023-09-30T02:59:24;4.60;;;4.20;;
33162;SDS011;29282;45.656;11.302;2023-09-30T03:01:50;5.45;;;4.80;;
33162;SDS011;29282;45.656;11.302;2023-09-30T03:04:15;5.40;;;4.45;;
33162;SDS011;29282;45.656;11.302;2023-09-30T03:06:44;5.18;;;3.85;;
33162;SDS011;29282;45.656;11.302;2023-09-30T03:09:09;4.93;;;4.43;;
33162;SDS011;29282;45.656;11.302;2023-09-30T03:11:37;4.90;;;4.35;;
33162;SDS011;29282;45.656;11.302;2023-09-30T03:14:03;5.07;;;4.30;;
33162;SDS011;29282;45.656;11.302;2023-09-30T03:16:28;5.20;;;4.40;;
33162;SDS011;29282;45.656;11.302;2023-09-30T03:18:55;6.05;;;3.88;;
33162;SDS011;29282;45.656;11.302;2023-09-30T03:21:21;4.40;;;4.00;;
33162;SDS011;29282;45.656;11.302;2023-09-30T03:23:47;5.05;;;4.15;;
33162;SDS011;29282;45.656;11.302;2023-09-30T03:26:12;4.57;;;3.97;;
33162;SDS011;29282;45.656;11.302;2023-09-30T03:28:38;7.35;;;4.25;;
33162;SDS011;29282;45.656;11.302;2023-09-30T03:31:04;5.18;;;4.45;;
33162;SDS011;29282;45.656;11.302;2023-09-30T03:33:31;4.55;;;4.07;;
33162;SDS011;29282;45.656;11.302;2023-09-30T03:35:57;4.35;;;3.85;;
33162;SDS011;29282;45.656;11.302;2023-09-30T03:38:26;6.18;;;4.63;;
33162;SDS011;29282;45.656;11.302;2023-09-30T03:40:51;5.40;;;4.28;;
33162;SDS011;29282;45.656;11.302;2023-09-30T03:43:19;4.65;;;4.22;;
33162;SDS011;29282;45.656;11.302;2023-09-30T03:45:46;5.18;;;3.97;;
33162;SDS011;29282;45.656;11.302;2023-09-30T03:48:11;6.20;;;4.57;;
33162;SDS011;29282;45.656;11.302;2023-09-30T03:50:37;4.40;;;3.90;;
33162;SDS011;29282;45.656;11.302;2023-09-30T03:53:03;5.03;;;4.25;;
33162;SDS011;29282;45.656;11.302;2023-09-30T03:55:32;4.60;;;4.20;;
33162;SDS011;29282;45.656;11.302;2023-09-30T03:57:58;5.18;;;4.20;;
33162;SDS011;29282;45.656;11.302;2023-09-30T04:00:24;5.25;;;3.95;;
33162;SDS011;29282;45.656;11.302;2023-09-30T04:02:51;4.70;;;4.10;;
33162;SDS011;29282;45.656;11.302;2023-09-30T04:05:22;5.63;;;4.00;;
33162;SDS011;29282;45.656;11.302;2023-09-30T04:07:54;4.78;;;4.32;;
33162;SDS011;29282;45.656;11.302;2023-09-30T04:10:20;4.50;;;4.10;;
33162;SDS011;29282;45.656;11.302;2023-09-30T04:12:47;4.60;;;4.13;;
33162;SDS011;29282;45.656;11.302;2023-09-30T04:15:13;4.88;;;4.05;;
33162;SDS011;29282;45.656;11.302;2023-09-30T04:17:39;4.40;;;4.00;;
33162;SDS011;29282;45.656;11.302;2023-09-30T04:20:08;3.97;;;3.67;;
33162;SDS011;29282;45.656;11.302;2023-09-30T04:22:41;4.93;;;4.18;;
33162;SDS011;29282;45.656;11.302;2023-09-30T04:25:07;4.60;;;3.90;;
33162;SDS011;29282;45.656;11.302;2023-09-30T04:27:36;6.25;;;4.00;;
33162;SDS011;29282;45.656;11.302;2023-09-30T04:30:02;5.00;;;4.15;;
33162;SDS011;29282;45.656;11.302;2023-09-30T04:32:33;3.97;;;3.58;;
33162;SDS011;29282;45.656;11.302;2023-09-30T04:35:02;5.22;;;4.00;;
33162;SDS011;29282;45.656;11.302;2023-09-30T04:37:29;6.10;;;4.43;;
33162;SDS011;29282;45.656;11.302;2023-09-30T04:39:54;4.32;;;3.92;;
33162;SDS011;29282;45.656;11.302;2023-09-30T04:42:20;4.57;;;4.18;;
33162;SDS011;29282;45.656;11.302;2023-09-30T04:44:45;4.60;;;4.20;;
33162;SDS011;29282;45.656;11.302;2023-09-30T04:47:11;4.82;;;3.78;;
33162;SDS011;29282;45.656;11.302;2023-09-30T04:49:36;4.53;;;4.13;;
33162;SDS011;29282;45.656;11.302;2023-09-30T04:52:02;4.45;;;4.05;;
33162;SDS011;29282;45.656;11.302;2023-09-30T04:54:29;4.90;;;4.40;;
33162;SDS011;29282;45.656;11.302;2023-09-30T04:56:54;5.18;;;3.92;;
33162;SDS011;29282;45.656;11.302;2023-09-30T04:59:20;4.28;;;3.88;;
33162;SDS011;29282;45.656;11.302;2023-09-30T05:01:46;4.93;;;4.40;;
33162;SDS011;29282;45.656;11.302;2023-09-30T05:04:11;4.53;;;4.13;;
33162;SDS011;29282;45.656;11.302;2023-09-30T05:06:36;4.35;;;3.95;;
33162;SDS011;29282;45.656;11.302;2023-09-30T05:09:02;4.70;;;3.97;;
33162;SDS011;29282;45.656;11.302;2023-09-30T05:11:27;4.30;;;3.90;;
33162;SDS011;29282;45.656;11.302;2023-09-30T05:13:53;4.18;;;3.78;;
33162;SDS011;29282;45.656;11.302;2023-09-30T05:16:19;4.47;;;4.00;;
33162;SDS011;29282;45.656;11.302;2023-09-30T05:18:45;4.25;;;3.85;;
33162;SDS011;29282;45.656;11.302;2023-09-30T05:21:10;4.70;;;4.30;;
33162;SDS011;29282;45.656;11.302;2023-09-30T05:23:37;5.30;;;3.70;;
33162;SDS011;29282;45.656;11.302;2023-09-30T05:26:03;5.22;;;4.22;;
33162;SDS011;29282;45.656;11.302;2023-09-30T05:28:29;4.57;;;3.90;;
33162;SDS011;29282;45.656;11.302;2023-09-30T05:30:54;3.90;;;3.60;;
33162;SDS011;29282;45.656;11.302;2023-09-30T05:33:19;4.40;;;3.97;;
33162;SDS011;29282;45.656;11.302;2023-09-30T05:35:45;4.13;;;3.75;;
33162;SDS011;29282;45.656;11.302;2023-09-30T05:38:11;4.80;;;4.30;;
33162;SDS011;29282;45.656;11.302;2023-09-30T05:40:37;4.68;;;3.95;;
33162;SDS011;29282;45.656;11.302;2023-09-30T05:43:03;4.10;;;3.78;;
33162;SDS011;29282;45.656;11.302;2023-09-30T05:45:31;4.53;;;4.13;;
33162;SDS011;29282;45.656;11.302;2023-09-30T05:48:04;4.97;;;4.30;;
33162;SDS011;29282;45.656;11.302;2023-09-30T05:50:32;4.13;;;3.65;;
33162;SDS011;29282;45.656;11.302;2023-09-30T05:52:59;4.28;;;3.88;;
33162;SDS011;29282;45.656;11.302;2023-09-30T05:55:25;4.35;;;3.95;;
33162;SDS011;29282;45.656;11.302;2023-09-30T05:57:51;5.20;;;3.95;;
33162;SDS011;29282;45.656;11.302;2023-09-30T06:00:19;4.32;;;3.92;;
33162;SDS011;29282;45.656;11.302;2023-09-30T06:03:03;4.80;;;4.30;;
33162;SDS011;29282;45.656;11.302;2023-09-30T06:05:32;4.75;;;4.22;;
33162;SDS011;29282;45.656;11.302;2023-09-30T06:07:59;4.60;;;4.20;;
33162;SDS011;29282;45.656;11.302;2023-09-30T06:10:28;4.20;;;3.80;;
33162;SDS011;29282;45.656;11.302;2023-09-30T06:12:54;4.88;;;4.03;;
33162;SDS011;29282;45.656;11.302;2023-09-30T06:15:20;3.92;;;3.55;;
33162;SDS011;29282;45.656;11.302;2023-09-30T06:17:51;4.30;;;3.90;;
33162;SDS011;29282;45.656;11.302;2023-09-30T06:20:21;4.18;;;3.78;;
33162;SDS011;29282;45.656;11.302;2023-09-30T06:22:47;4.13;;;3.72;;
33162;SDS011;29282;45.656;11.302;2023-09-30T06:25:17;4.25;;;3.85;;
33162;SDS011;29282;45.656;11.302;2023-09-30T06:27:46;4.00;;;3.60;;
33162;SDS011;29282;45.656;11.302;2023-09-30T06:30:15;5.25;;;4.53;;
33162;SDS011;29282;45.656;11.302;2023-09-30T06:32:47;4.50;;;4.10;;
33162;SDS011;29282;45.656;11.302;2023-09-30T06:35:13;4.30;;;4.00;;
33162;SDS011;29282;45.656;11.302;2023-09-30T06:37:41;4.15;;;3.75;;
33162;SDS011;29282;45.656;11.302;2023-09-30T06:40:07;3.92;;;3.53;;
33162;SDS011;29282;45.656;11.302;2023-09-30T06:42:37;4.35;;;3.95;;
33162;SDS011;29282;45.656;11.302;2023-09-30T06:45:05;5.40;;;3.85;;
33162;SDS011;29282;45.656;11.302;2023-09-30T06:47:37;4.38;;;3.97;;
33162;SDS011;29282;45.656;11.302;2023-09-30T06:50:10;5.47;;;3.97;;
33162;SDS011;29282;45.656;11.302;2023-09-30T06:52:40;4.47;;;3.78;;
33162;SDS011;29282;45.656;11.302;2023-09-30T06:55:07;5.35;;;3.75;;
33162;SDS011;29282;45.656;11.302;2023-09-30T06:57:37;4.68;;;3.95;;
33162;SDS011;29282;45.656;11.302;2023-09-30T07:00:10;4.15;;;3.75;;
33162;SDS011;29282;45.656;11.302;2023-09-30T07:02:37;4.23;;;3.83;;
33162;SDS011;29282;45.656;11.302;2023-09-30T07:05:10;5.20;;;3.63;;
33162;SDS011;29282;45.656;11.302;2023-09-30T07:07:37;4.95;;;3.90;;
33162;SDS011;29282;45.656;11.302;2023-09-30T07:10:03;4.45;;;4.05;;
33162;SDS011;29282;45.656;11.302;2023-09-30T07:12:30;4.60;;;3.83;;
33162;SDS011;29282;45.656;11.302;2023-09-30T07:14:56;4.28;;;3.88;;
33162;SDS011;29282;45.656;11.302;2023-09-30T07:17:22;3.97;;;3.65;;
33162;SDS011;29282;45.656;11.302;2023-09-30T07:19:48;4.00;;;3.70;;
33162;SDS011;29282;45.656;11.302;2023-09-30T07:22:13;4.35;;;3.95;;
33162;SDS011;29282;45.656;11.302;2023-09-30T07:24:39;4.40;;;3.90;;
33162;SDS011;29282;45.656;11.302;2023-09-30T07:27:05;5.18;;;3.80;;
33162;SDS011;29282;45.656;11.302;2023-09-30T07:29:31;4.20;;;3.78;;
33162;SDS011;29282;45.656;11.302;2023-09-30T07:31:57;3.95;;;3.65;;
33162;SDS011;29282;45.656;11.302;2023-09-30T07:34:22;4.15;;;3.75;;
33162;SDS011;29282;45.656;11.302;2023-09-30T07:36:48;5.70;;;3.72;;
33162;SDS011;29282;45.656;11.302;2023-09-30T07:39:13;5.28;;;3.90;;
33162;SDS011;29282;45.656;11.302;2023-09-30T07:41:39;6.15;;;3.80;;
33162;SDS011;29282;45.656;11.302;2023-09-30T07:44:04;4.40;;;3.88;;
33162;SDS011;29282;45.656;11.302;2023-09-30T07:46:30;6.57;;;3.97;;
33162;SDS011;29282;45.656;11.302;2023-09-30T07:48:56;3.85;;;3.55;;
33162;SDS011;29282;45.656;11.302;2023-09-30T07:51:24;6.60;;;4.05;;
33162;SDS011;29282;45.656;11.302;2023-09-30T07:53:50;8.52;;;4.03;;
33162;SDS011;29282;45.656;11.302;2023-09-30T07:56:15;4.63;;;3.75;;
33162;SDS011;29282;45.656;11.302;2023-09-30T07:58:41;4.30;;;3.80;;
33162;SDS011;29282;45.656;11.302;2023-09-30T08:01:07;6.50;;;3.90;;
33162;SDS011;29282;45.656;11.302;2023-09-30T08:03:33;5.57;;;4.13;;
33162;SDS011;29282;45.656;11.302;2023-09-30T08:05:59;5.18;;;4.30;;
33162;SDS011;29282;45.656;11.302;2023-09-30T08:08:25;5.22;;;4.18;;
33162;SDS011;29282;45.656;11.302;2023-09-30T08:10:51;4.43;;;4.03;;
33162;SDS011;29282;45.656;11.302;2023-09-30T08:13:21;4.45;;;3.67;;
33162;SDS011;29282;45.656;11.302;2023-09-30T08:15:48;4.80;;;3.95;;
33162;SDS011;29282;45.656;11.302;2023-09-30T08:18:15;4.63;;;4.03;;
33162;SDS011;29282;45.656;11.302;2023-09-30T08:20:40;6.60;;;4.38;;
33162;SDS011;29282;45.656;11.302;2023-09-30T08:23:06;4.88;;;3.78;;
33162;SDS011;29282;45.656;11.302;2023-09-30T08:25:31;7.47;;;4.10;;
33162;SDS011;29282;45.656;11.302;2023-09-30T08:27:57;9.63;;;4.40;;
33162;SDS011;29282;45.656;11.302;2023-09-30T08:30:22;4.95;;;4.18;;
33162;SDS011;29282;45.656;11.302;2023-09-30T08:32:48;6.68;;;4.65;;
33162;SDS011;29282;45.656;11.302;2023-09-30T08:35:13;5.20;;;4.30;;
33162;SDS011;29282;45.656;11.302;2023-09-30T08:37:40;9.20;;;4.55;;
33162;SDS011;29282;45.656;11.302;2023-09-30T08:40:08;8.85;;;4.88;;
33162;SDS011;29282;45.656;11.302;2023-09-30T08:42:39;7.93;;;5.00;;
33162;SDS011;29282;45.656;11.302;2023-09-30T08:45:05;9.05;;;5.18;;
33162;SDS011;29282;45.656;11.302;2023-09-30T08:47:35;8.45;;;4.25;;
33162;SDS011;29282;45.656;11.302;2023-09-30T08:50:02;13.88;;;4.88;;
33162;SDS011;29282;45.656;11.302;2023-09-30T08:52:34;7.35;;;4.82;;
33162;SDS011;29282;45.656;11.302;2023-09-30T08:55:00;7.78;;;4.50;;
33162;SDS011;29282;45.656;11.302;2023-09-30T08:57:26;6.20;;;4.82;;
33162;SDS011;29282;45.656;11.302;2023-09-30T08:59:53;7.75;;;4.82;;
33162;SDS011;29282;45.656;11.302;2023-09-30T09:02:19;7.95;;;4.70;;
33162;SDS011;29282;45.656;11.302;2023-09-30T09:04:45;8.25;;;4.88;;
33162;SDS011;29282;45.656;11.302;2023-09-30T09:07:14;10.07;;;4.82;;
33162;SDS011;29282;45.656;11.302;2023-09-30T09:09:40;6.22;;;4.95;;
33162;SDS011;29282;45.656;11.302;2023-09-30T09:12:06;7.80;;;4.75;;
33162;SDS011;29282;45.656;11.302;2023-09-30T09:14:43;7.65;;;5.03;;
33162;SDS011;29282;45.656;11.302;2023-09-30T09:17:10;6.18;;;4.70;;
33162;SDS011;29282;45.656;11.302;2023-09-30T09:19:36;5.65;;;4.88;;
33162;SDS011;29282;45.656;11.302;2023-09-30T09:22:02;9.27;;;5.03;;
33162;SDS011;29282;45.656;11.302;2023-09-30T09:24:38;7.75;;;4.97;;
33162;SDS011;29282;45.656;11.302;2023-09-30T09:27:12;6.55;;;4.53;;
33162;SDS011;29282;45.656;11.302;2023-09-30T09:29:41;9.40;;;4.60;;
33162;SDS011;29282;45.656;11.302;2023-09-30T09:32:14;6.68;;;5.10;;
33162;SDS011;29282;45.656;11.302;2023-09-30T09:34:41;7.05;;;4.70;;
33162;SDS011;29282;45.656;11.302;2023-09-30T09:37:20;8.10;;;5.07;;
33162;SDS011;29282;45.656;11.302;2023-09-30T09:42:23;7.45;;;4.50;;
33162;SDS011;29282;45.656;11.302;2023-09-30T09:45:00;11.75;;;5.05;;
33162;SDS011;29282;45.656;11.302;2023-09-30T09:47:31;7.55;;;5.20;;
33162;SDS011;29282;45.656;11.302;2023-09-30T09:49:58;11.18;;;4.85;;
33162;SDS011;29282;45.656;11.302;2023-09-30T09:52:25;6.00;;;5.10;;
33162;SDS011;29282;45.656;11.302;2023-09-30T09:54:51;7.35;;;4.93;;
33162;SDS011;29282;45.656;11.302;2023-09-30T09:57:17;7.88;;;4.90;;
33162;SDS011;29282;45.656;11.302;2023-09-30T09:59:44;7.07;;;4.63;;
33162;SDS011;29282;45.656;11.302;2023-09-30T10:02:13;8.57;;;5.00;;
33162;SDS011;29282;45.656;11.302;2023-09-30T10:04:43;6.47;;;4.80;;
33162;SDS011;29282;45.656;11.302;2023-09-30T10:07:20;7.75;;;4.78;;
33162;SDS011;29282;45.656;11.302;2023-09-30T10:09:50;9.95;;;5.13;;
33162;SDS011;29282;45.656;11.302;2023-09-30T10:12:20;9.88;;;5.03;;
33162;SDS011;29282;45.656;11.302;2023-09-30T10:14:46;11.00;;;5.35;;
33162;SDS011;29282;45.656;11.302;2023-09-30T10:17:12;15.20;;;5.93;;
33162;SDS011;29282;45.656;11.302;2023-09-30T10:20:02;9.45;;;4.95;;
33162;SDS011;29282;45.656;11.302;2023-09-30T10:22:32;14.38;;;5.47;;
33162;SDS011;29282;45.656;11.302;2023-09-30T10:24:59;6.68;;;5.03;;
33162;SDS011;29282;45.656;11.302;2023-09-30T10:29:57;11.25;;;5.80;;
33162;SDS011;29282;45.656;11.302;2023-09-30T10:36:01;10.70;;;4.90;;
33162;SDS011;29282;45.656;11.302;2023-09-30T10:40:52;9.43;;;5.13;;
33162;SDS011;29282;45.656;11.302;2023-09-30T10:43:39;11.88;;;5.93;;
33162;SDS011;29282;45.656;11.302;2023-09-30T10:48:51;9.07;;;5.80;;
33162;SDS011;29282;45.656;11.302;2023-09-30T10:51:18;7.68;;;5.30;;
33162;SDS011;29282;45.656;11.302;2023-09-30T10:56:22;9.93;;;5.35;;
33162;SDS011;29282;45.656;11.302;2023-09-30T10:58:49;9.85;;;5.63;;
33162;SDS011;29282;45.656;11.302;2023-09-30T11:01:21;7.22;;;5.65;;
33162;SDS011;29282;45.656;11.302;2023-09-30T11:03:48;7.45;;;5.57;;
33162;SDS011;29282;45.656;11.302;2023-09-30T11:06:17;12.63;;;5.82;;
33162;SDS011;29282;45.656;11.302;2023-09-30T11:08:58;9.73;;;6.13;;
33162;SDS011;29282;45.656;11.302;2023-09-30T11:11:44;7.93;;;5.95;;
33162;SDS011;29282;45.656;11.302;2023-09-30T11:14:26;6.85;;;5.50;;
33162;SDS011;29282;45.656;11.302;2023-09-30T11:16:57;10.05;;;6.28;;
33162;SDS011;29282;45.656;11.302;2023-09-30T11:19:24;9.70;;;6.47;;
33162;SDS011;29282;45.656;11.302;2023-09-30T11:21:51;9.77;;;5.72;;
33162;SDS011;29282;45.656;11.302;2023-09-30T11:24:17;8.52;;;6.30;;
33162;SDS011;29282;45.656;11.302;2023-09-30T11:26:44;8.88;;;5.85;;
33162;SDS011;29282;45.656;11.302;2023-09-30T11:31:41;9.50;;;6.60;;
33162;SDS011;29282;45.656;11.302;2023-09-30T11:34:08;9.98;;;6.50;;
33162;SDS011;29282;45.656;11.302;2023-09-30T11:36:35;8.82;;;6.28;;
33162;SDS011;29282;45.656;11.302;2023-09-30T11:39:02;9.73;;;6.85;;
33162;SDS011;29282;45.656;11.302;2023-09-30T11:41:35;10.07;;;6.28;;
33162;SDS011;29282;45.656;11.302;2023-09-30T11:44:10;10.77;;;6.60;;
33162;SDS011;29282;45.656;11.302;2023-09-30T11:46:50;10.73;;;6.32;;
33162;SDS011;29282;45.656;11.302;2023-09-30T11:49:24;8.57;;;6.35;;
33162;SDS011;29282;45.656;11.302;2023-09-30T11:51:52;9.57;;;6.28;;
33162;SDS011;29282;45.656;11.302;2023-09-30T11:54:17;6.82;;;6.10;;
33162;SDS011;29282;45.656;11.302;2023-09-30T11:56:43;12.88;;;6.70;;
33162;SDS011;29282;45.656;11.302;2023-09-30T11:59:08;8.90;;;6.38;;
33162;SDS011;29282;45.656;11.302;2023-09-30T12:01:37;14.48;;;6.57;;
33162;SDS011;29282;45.656;11.302;2023-09-30T12:04:03;7.80;;;6.50;;
33162;SDS011;29282;45.656;11.302;2023-09-30T12:06:29;13.45;;;6.97;;
33162;SDS011;29282;45.656;11.302;2023-09-30T12:08:54;7.43;;;6.32;;
33162;SDS011;29282;45.656;11.302;2023-09-30T12:11:20;8.63;;;6.40;;
33162;SDS011;29282;45.656;11.302;2023-09-30T12:13:49;11.25;;;6.50;;
33162;SDS011;29282;45.656;11.302;2023-09-30T12:16:15;8.88;;;6.13;;
33162;SDS011;29282;45.656;11.302;2023-09-30T12:18:44;7.75;;;6.32;;
33162;SDS011;29282;45.656;11.302;2023-09-30T12:21:10;10.50;;;6.25;;
33162;SDS011;29282;45.656;11.302;2023-09-30T12:23:36;13.27;;;6.40;;
33162;SDS011;29282;45.656;11.302;2023-09-30T12:26:03;9.60;;;6.50;;
33162;SDS011;29282;45.656;11.302;2023-09-30T12:28:33;8.82;;;6.15;;
33162;SDS011;29282;45.656;11.302;2023-09-30T12:30:59;8.05;;;6.53;;
33162;SDS011;29282;45.656;11.302;2023-09-30T12:33:28;10.35;;;6.70;;
33162;SDS011;29282;45.656;11.302;2023-09-30T12:35:55;10.63;;;6.60;;
33162;SDS011;29282;45.656;11.302;2023-09-30T12:38:21;14.90;;;6.55;;
33162;SDS011;29282;45.656;11.302;2023-09-30T12:40:50;9.20;;;6.68;;
33162;SDS011;29282;45.656;11.302;2023-09-30T12:43:16;11.00;;;6.68;;
33162;SDS011;29282;45.656;11.302;2023-09-30T12:45:42;12.85;;;7.32;;
33162;SDS011;29282;45.656;11.302;2023-09-30T12:48:07;9.60;;;6.32;;
33162;SDS011;29282;45.656;11.302;2023-09-30T12:50:33;10.77;;;6.20;;
33162;SDS011;29282;45.656;11.302;2023-09-30T12:52:58;13.32;;;6.53;;
33162;SDS011;29282;45.656;11.302;2023-09-30T12:55:24;10.63;;;7.03;;
33162;SDS011;29282;45.656;11.302;2023-09-30T12:57:52;8.38;;;6.32;;
33162;SDS011;29282;45.656;11.302;2023-09-30T13:00:18;13.82;;;6.60;;
33162;SDS011;29282;45.656;11.302;2023-09-30T13:02:44;9.90;;;6.20;;
33162;SDS011;29282;45.656;11.302;2023-09-30T13:05:10;9.73;;;6.25;;
33162;SDS011;29282;45.656;11.302;2023-09-30T13:07:37;10.68;;;6.60;;
33162;SDS011;29282;45.656;11.302;2023-09-30T13:10:03;10.43;;;6.57;;
33162;SDS011;29282;45.656;11.302;2023-09-30T13:12:30;10.85;;;6.85;;
33162;SDS011;29282;45.656;11.302;2023-09-30T13:14:58;10.05;;;6.18;;
33162;SDS011;29282;45.656;11.302;2023-09-30T13:17:24;14.18;;;6.70;;
33162;SDS011;29282;45.656;11.302;2023-09-30T13:19:50;19.63;;;6.95;;
33162;SDS011;29282;45.656;11.302;2023-09-30T13:22:16;22.63;;;7.20;;
33162;SDS011;29282;45.656;11.302;2023-09-30T13:24:43;17.80;;;7.38;;
33162;SDS011;29282;45.656;11.302;2023-09-30T13:27:08;15.27;;;7.18;;
33162;SDS011;29282;45.656;11.302;2023-09-30T13:29:34;9.00;;;6.75;;
33162;SDS011;29282;45.656;11.302;2023-09-30T13:32:00;12.90;;;6.80;;
33162;SDS011;29282;45.656;11.302;2023-09-30T13:34:26;11.70;;;6.45;;
33162;SDS011;29282;45.656;11.302;2023-09-30T13:36:51;13.43;;;6.28;;
33162;SDS011;29282;45.656;11.302;2023-09-30T13:39:17;15.48;;;6.90;;
33162;SDS011;29282;45.656;11.302;2023-09-30T13:41:45;13.57;;;6.50;;
33162;SDS011;29282;45.656;11.302;2023-09-30T13:44:12;10.77;;;6.80;;
33162;SDS011;29282;45.656;11.302;2023-09-30T13:46:41;16.90;;;6.82;;
33162;SDS011;29282;45.656;11.302;2023-09-30T13:49:07;9.90;;;6.82;;
33162;SDS011;29282;45.656;11.302;2023-09-30T13:51:33;13.35;;;6.15;;
33162;SDS011;29282;45.656;11.302;2023-09-30T13:53:58;14.90;;;6.88;;
33162;SDS011;29282;45.656;11.302;2023-09-30T13:56:24;11.60;;;6.65;;
33162;SDS011;29282;45.656;11.302;2023-09-30T13:58:49;14.20;;;6.00;;
33162;SDS011;29282;45.656;11.302;2023-09-30T14:01:15;12.52;;;6.68;;
33162;SDS011;29282;45.656;11.302;2023-09-30T14:03:41;12.93;;;6.65;;
33162;SDS011;29282;45.656;11.302;2023-09-30T14:06:15;11.00;;;6.35;;
33162;SDS011;29282;45.656;11.302;2023-09-30T14:08:43;8.85;;;6.53;;
33162;SDS011;29282;45.656;11.302;2023-09-30T14:11:09;8.60;;;6.20;;
33162;SDS011;29282;45.656;11.302;2023-09-30T14:13:37;13.30;;;6.72;;
33162;SDS011;29282;45.656;11.302;2023-09-30T14:16:04;10.90;;;6.35;;
33162;SDS011;29282;45.656;11.302;2023-09-30T14:18:30;10.85;;;6.47;;
33162;SDS011;29282;45.656;11.302;2023-09-30T14:20:56;8.50;;;6.28;;
33162;SDS011;29282;45.656;11.302;2023-09-30T14:23:21;9.73;;;6.10;;
33162;SDS011;29282;45.656;11.302;2023-09-30T14:25:48;9.23;;;6.20;;
33162;SDS011;29282;45.656;11.302;2023-09-30T14:28:14;11.10;;;6.43;;
33162;SDS011;29282;45.656;11.302;2023-09-30T14:30:40;11.85;;;6.47;;
33162;SDS011;29282;45.656;11.302;2023-09-30T14:33:05;12.05;;;6.50;;
33162;SDS011;29282;45.656;11.302;2023-09-30T14:35:34;10.38;;;6.72;;
33162;SDS011;29282;45.656;11.302;2023-09-30T14:37:59;9.65;;;6.18;;
33162;SDS011;29282;45.656;11.302;2023-09-30T14:40:25;12.63;;;6.43;;
33162;SDS011;29282;45.656;11.302;2023-09-30T14:42:51;9.63;;;6.72;;
33162;SDS011;29282;45.656;11.302;2023-09-30T14:45:16;13.43;;;6.70;;
33162;SDS011;29282;45.656;11.302;2023-09-30T14:47:42;9.18;;;6.68;;
33162;SDS011;29282;45.656;11.302;2023-09-30T14:50:08;8.80;;;6.45;;
33162;SDS011;29282;45.656;11.302;2023-09-30T14:52:34;11.30;;;6.75;;